Time;durP1;ratioP1;P1;durP2;ratioP2;P2;SDS_P1;SDS_P2;PMS_P1;PMS_P2;Temp;Humidity;BMP_temperature;BMP_pressure;BME280_temperature;BME280_humidity;BME280_pressure;Samples;Min_cycle;Max_cycle;Signal;HPM_P1;HPM_P2
2022/09/24 00:01:44;;;;;;;3.95;2.63;;;;;;;19.02;59.29;101282.50;5054948;28;20044;-77
2022/09/24 00:04:11;;;;;;;4.82;2.65;;;;;;;19.02;59.13;101285.94;5090044;28;20063;-78
2022/09/24 00:06:41;;;;;;;4.20;2.58;;;;;;;19.01;59.47;101283.34;5110378;28;20071;-77
2022/09/24 00:09:06;;;;;;;3.80;2.70;;;;;;;19.02;59.31;101283.34;5090157;28;21304;-77
2022/09/24 00:11:32;;;;;;;3.70;2.70;;;;;;;19.02;59.40;101280.72;5075469;28;20063;-77
2022/09/24 00:13:58;;;;;;;4.63;2.78;;;;;;;19.02;59.26;101282.50;5071349;28;20044;-77
2022/09/24 00:16:26;;;;;;;4.35;2.65;;;;;;;19.03;59.38;101278.97;5094342;28;20047;-77
2022/09/24 00:18:52;;;;;;;3.55;2.47;;;;;;;19.04;59.37;101278.13;5093608;28;20393;-78
2022/09/24 00:21:32;;;;;;;6.85;2.78;;;;;;;19.03;59.28;101286.81;5091385;28;20062;-77
2022/09/24 00:24:01;;;;;;;4.95;2.60;;;;;;;19.03;58.94;101285.09;5109233;28;20050;-77
2022/09/24 00:29:14;;;;;;;4.20;2.72;;;;;;;19.04;59.28;101278.13;5103508;28;20066;-76
2022/09/24 00:31:40;;;;;;;4.32;2.85;;;;;;;19.04;58.99;101275.50;5095601;28;20048;-77
2022/09/24 00:34:05;;;;;;;4.60;3.10;;;;;;;19.03;58.97;101279.88;5093236;28;21116;-78
2022/09/24 00:36:31;;;;;;;3.33;2.28;;;;;;;19.04;59.05;101278.97;5061293;28;20051;-78
2022/09/24 00:38:58;;;;;;;3.95;2.65;;;;;;;19.03;58.96;101271.16;5092103;28;20043;-78
2022/09/24 00:41:30;;;;;;;3.95;2.53;;;;;;;19.04;59.05;101271.16;5078216;28;20062;-80
2022/09/24 00:43:57;;;;;;;3.33;2.50;;;;;;;19.03;59.29;101277.25;5092664;28;20051;-78
2022/09/24 00:46:24;;;;;;;5.25;2.60;;;;;;;19.06;59.17;101276.38;5094856;28;20497;-79
2022/09/24 00:48:54;;;;;;;4.40;2.80;;;;;;;19.05;59.26;101280.72;5093460;28;20067;-78
2022/09/24 00:51:21;;;;;;;3.25;2.50;;;;;;;19.04;59.24;101270.31;5094103;28;20064;-77
2022/09/24 00:53:54;;;;;;;4.40;2.55;;;;;;;19.05;58.95;101267.69;5093766;28;20054;-77
2022/09/24 00:56:21;;;;;;;3.63;2.30;;;;;;;19.05;59.03;101266.78;5093668;28;20143;-79
2022/09/24 00:58:54;;;;;;;4.22;2.47;;;;;;;19.06;59.26;101263.31;5094352;28;20429;-78
2022/09/24 01:01:22;;;;;;;3.47;2.33;;;;;;;19.05;59.00;101266.78;5093607;28;20052;-77
2022/09/24 01:03:49;;;;;;;5.53;2.50;;;;;;;19.06;59.07;101265.94;5112436;28;20048;-76
2022/09/24 01:06:15;;;;;;;3.05;2.05;;;;;;;19.07;58.79;101259.81;5093534;28;20047;-76
2022/09/24 01:08:40;;;;;;;6.10;2.25;;;;;;;19.06;59.04;101263.31;5112550;28;20058;-77
2022/09/24 01:11:24;;;;;;;3.00;2.20;;;;;;;19.07;59.08;101254.59;5110306;28;20200;-76
2022/09/24 01:13:50;;;;;;;3.42;2.40;;;;;;;19.06;58.96;101256.34;5111491;28;20062;-77
2022/09/24 01:16:23;;;;;;;4.53;2.13;;;;;;;19.06;58.92;101250.28;5093439;28;20074;-79
2022/09/24 01:19:10;;;;;;;4.30;2.05;;;;;;;19.06;58.82;101247.69;5093370;28;20051;-77
2022/09/24 01:27:40;;;;;;;3.60;2.30;;;;;;;19.06;58.89;101243.31;5100476;28;20054;-77
2022/09/24 01:30:06;;;;;;;3.03;2.15;;;;;;;19.05;59.32;101244.22;5091705;28;20489;-76
2022/09/24 01:35:20;;;;;;;3.50;2.08;;;;;;;19.07;58.95;101246.78;5102053;28;20651;-77
2022/09/24 01:37:59;;;;;;;2.85;1.92;;;;;;;19.06;58.76;101239.84;5111723;28;20044;-79
2022/09/24 01:40:27;;;;;;;2.92;2.20;;;;;;;19.07;58.67;101244.16;5092465;28;20044;-78
2022/09/24 01:42:55;;;;;;;4.45;2.08;;;;;;;19.06;59.00;101239.84;5110408;28;20180;-79
2022/09/24 01:45:21;;;;;;;3.42;2.30;;;;;;;19.06;58.88;101239.84;5112621;28;20520;-78
2022/09/24 01:47:47;;;;;;;3.25;2.05;;;;;;;19.06;58.75;101239.84;5090842;28;20047;-78
2022/09/24 01:50:17;;;;;;;2.83;2.00;;;;;;;19.08;58.69;101240.69;5101713;28;20051;-76
2022/09/24 01:55:15;;;;;;;3.55;2.15;;;;;;;19.07;59.01;101236.34;5093470;28;20048;-77
2022/09/24 02:00:17;;;;;;;2.97;1.85;;;;;;;19.07;58.80;101229.38;5101280;28;20086;-78
2022/09/24 02:05:23;;;;;;;3.63;1.95;;;;;;;19.08;58.67;101228.50;5101368;28;20052;-77
2022/09/24 02:08:10;;;;;;;2.45;1.90;;;;;;;19.08;58.73;101225.91;5091917;28;20098;-78
2022/09/24 02:13:12;;;;;;;2.35;2.05;;;;;;;19.09;58.76;101224.16;5109443;28;20047;-77
2022/09/24 02:15:41;;;;;;;3.20;2.05;;;;;;;19.09;58.76;101222.41;5090185;28;20490;-77
2022/09/24 02:18:10;;;;;;;2.45;1.90;;;;;;;19.09;58.52;101219.78;5108635;28;20064;-78
2022/09/24 02:20:38;;;;;;;2.72;2.00;;;;;;;19.08;58.50;101220.69;5082918;28;20037;-77
2022/09/24 02:23:05;;;;;;;3.05;2.20;;;;;;;19.09;58.62;101225.00;5072385;28;20071;-78
2022/09/24 02:25:40;;;;;;;3.20;2.05;;;;;;;19.09;58.77;101219.78;5076418;28;20043;-77
2022/09/24 02:28:05;;;;;;;2.72;1.98;;;;;;;19.08;58.53;101218.09;5090610;28;20044;-77
2022/09/24 02:30:40;;;;;;;2.45;1.65;;;;;;;19.09;58.73;101218.94;5076135;28;20131;-78
2022/09/24 02:35:55;;;;;;;3.50;2.10;;;;;;;19.10;58.41;101223.28;5097303;28;20056;-77
2022/09/24 02:38:22;;;;;;;2.20;1.80;;;;;;;19.09;58.53;101219.78;5092456;28;20050;-77
2022/09/24 02:40:48;;;;;;;2.80;1.90;;;;;;;19.10;58.73;101221.53;5092015;28;20040;-77
2022/09/24 02:43:14;;;;;;;3.05;1.95;;;;;;;19.11;58.47;101222.41;5074729;28;20090;-77
2022/09/24 02:45:39;;;;;;;2.60;1.70;;;;;;;19.11;58.63;101225.00;5048016;28;20041;-77
2022/09/24 02:48:04;;;;;;;3.15;2.22;;;;;;;19.11;58.50;101222.41;5087636;28;22075;-77
2022/09/24 02:50:30;;;;;;;3.15;1.85;;;;;;;19.11;58.58;101222.41;5075374;28;20501;-77
2022/09/24 02:52:55;;;;;;;2.55;1.90;;;;;;;19.10;58.65;101220.69;5073385;28;20562;-78
2022/09/24 02:55:21;;;;;;;2.33;1.95;;;;;;;19.11;58.72;101219.78;5076514;28;20078;-78
2022/09/24 02:57:46;;;;;;;2.88;2.10;;;;;;;19.11;58.62;101218.03;5059934;28;20081;-79
2022/09/24 03:00:12;;;;;;;2.20;1.60;;;;;;;19.11;58.68;101225.88;5058573;28;20509;-77
2022/09/24 03:02:37;;;;;;;2.47;1.77;;;;;;;19.13;58.51;101235.44;5092517;28;20093;-78
2022/09/24 03:05:03;;;;;;;2.40;1.85;;;;;;;19.11;58.71;101240.66;5056250;28;20055;-77
2022/09/24 03:07:29;;;;;;;2.72;1.83;;;;;;;19.11;58.84;101231.09;5075145;28;20054;-78
2022/09/24 03:09:54;;;;;;;2.22;1.83;;;;;;;19.12;58.50;101218.94;5073232;28;20071;-76
2022/09/24 03:12:19;;;;;;;2.28;1.63;;;;;;;19.11;58.59;101214.56;5075013;28;20051;-78
2022/09/24 03:14:45;;;;;;;2.20;1.90;;;;;;;19.11;58.82;101215.44;5058527;28;20038;-78
2022/09/24 03:17:10;;;;;;;2.20;1.90;;;;;;;19.13;58.58;101206.75;5089992;28;20473;-78
2022/09/24 03:19:36;;;;;;;3.88;1.88;;;;;;;19.12;58.67;101205.88;5075250;28;20027;-78
2022/09/24 03:22:01;;;;;;;3.22;1.70;;;;;;;19.10;58.26;101208.50;5089617;28;20047;-78
2022/09/24 03:24:26;;;;;;;3.08;2.00;;;;;;;19.13;58.52;101209.34;5052394;28;1116771;-76
2022/09/24 03:26:52;;;;;;;2.40;1.80;;;;;;;19.11;58.47;101207.59;5073251;28;20409;-77
2022/09/24 03:30:58;;;;;;;2.83;1.70;;;;;;;19.11;58.59;101204.13;5110243;28;20051;-76
2022/09/24 03:32:03;;;;;;;3.15;1.80;;;;;;;19.12;58.51;101203.28;5092978;28;20036;-76
2022/09/24 03:34:28;;;;;;;2.55;1.67;;;;;;;19.11;58.68;101202.38;5075131;28;20497;-76
2022/09/24 03:36:53;;;;;;;3.97;1.60;;;;;;;19.11;58.63;101198.91;5073195;28;20381;-82
2022/09/24 03:39:18;;;;;;;3.10;1.63;;;;;;;19.12;58.20;101200.66;5074904;28;20494;-81
2022/09/24 03:41:44;;;;;;;2.33;1.70;;;;;;;19.11;58.45;101199.78;5091931;28;20532;-83
2022/09/24 03:44:09;;;;;;;3.38;1.73;;;;;;;19.11;58.30;101207.59;5089697;28;20397;-83
2022/09/24 03:46:35;;;;;;;3.88;1.80;;;;;;;19.11;58.03;101210.22;5075070;28;20539;-83
2022/09/24 03:49:00;;;;;;;2.67;1.60;;;;;;;19.11;58.17;101205.00;5107960;28;20069;-82
2022/09/24 03:51:25;;;;;;;3.08;1.70;;;;;;;19.11;58.19;101215.44;5049293;28;20135;-82
2022/09/24 03:53:51;;;;;;;2.20;1.70;;;;;;;19.11;58.11;101199.78;5085197;28;20048;-83
2022/09/24 03:56:16;;;;;;;1.95;1.55;;;;;;;19.11;58.15;101218.03;5090756;28;20070;-83
2022/09/24 03:58:46;;;;;;;2.45;1.40;;;;;;;19.10;58.12;101207.63;5058406;28;20079;-82
2022/09/24 04:01:11;;;;;;;1.70;1.52;;;;;;;19.11;58.00;101209.34;5090002;28;21273;-82
2022/09/24 04:03:37;;;;;;;2.35;1.60;;;;;;;19.11;57.94;101206.75;5075345;28;20135;-82
2022/09/24 04:06:03;;;;;;;1.80;1.25;;;;;;;19.12;57.95;101211.09;5094559;28;20035;-82
2022/09/24 04:08:30;;;;;;;2.20;1.60;;;;;;;19.11;57.93;101211.97;5101135;28;20055;-80
2022/09/24 04:10:56;;;;;;;2.03;1.52;;;;;;;19.11;58.07;101206.75;5105204;28;20027;-79
2022/09/24 04:13:21;;;;;;;2.17;1.38;;;;;;;19.10;58.15;101213.72;5126875;28;20059;-81
2022/09/24 04:15:50;;;;;;;2.08;1.33;;;;;;;19.10;57.97;101203.28;5101635;28;20043;-81
2022/09/24 04:18:16;;;;;;;2.65;1.33;;;;;;;19.11;57.96;101206.75;5112374;28;20055;-83
2022/09/24 04:20:42;;;;;;;1.92;1.30;;;;;;;19.11;57.88;101217.19;5076882;28;20031;-81
2022/09/24 04:23:09;;;;;;;2.08;1.65;;;;;;;19.11;57.93;101209.34;5073726;28;20494;-82
2022/09/24 04:25:34;;;;;;;2.10;1.60;;;;;;;19.11;58.08;101218.03;5091979;28;20118;-82
2022/09/24 04:28:03;;;;;;;3.40;1.52;;;;;;;19.12;57.89;101208.50;5089647;28;20345;-82
2022/09/24 04:30:30;;;;;;;2.20;1.23;;;;;;;19.11;57.88;101215.44;5109936;28;20036;-82
2022/09/24 04:32:59;;;;;;;2.35;1.40;;;;;;;19.11;57.99;101220.66;5072708;28;20047;-82
2022/09/24 04:35:26;;;;;;;2.53;1.35;;;;;;;19.11;57.88;101210.22;5075171;28;20059;-82
2022/09/24 04:37:51;;;;;;;1.63;1.27;;;;;;;19.11;57.97;101207.59;5089991;28;20459;-82
2022/09/24 04:40:17;;;;;;;3.70;1.40;;;;;;;19.11;57.95;101218.03;5073832;28;20052;-82
2022/09/24 04:45:12;;;;;;;1.98;1.40;;;;;;;19.11;57.77;101215.44;5056589;28;21194;-81
2022/09/24 04:47:39;;;;;;;1.80;1.38;;;;;;;19.11;57.95;101220.66;5091526;28;20059;-82
2022/09/24 04:50:07;;;;;;;1.95;1.40;;;;;;;19.13;57.88;101222.41;5056088;28;20055;-82
2022/09/24 04:52:32;;;;;;;3.05;1.63;;;;;;;19.14;57.68;101226.72;5091766;28;20047;-81
2022/09/24 04:55:01;;;;;;;2.30;1.20;;;;;;;19.12;57.75;101218.94;5107753;28;20052;-88
2022/09/24 04:57:28;;;;;;;50.20;17.75;;;;;;;19.15;57.83;101223.25;5074314;28;20039;-78
2022/09/24 04:59:54;;;;;;;83.85;32.00;;;;;;;19.16;58.00;101223.22;5107724;28;20048;-76
2022/09/24 05:02:19;;;;;;;82.25;28.88;;;;;;;19.17;57.99;101224.94;5074921;28;20147;-78
2022/09/24 05:04:44;;;;;;;69.53;22.27;;;;;;;19.17;58.09;101226.72;5066544;28;20044;-81
2022/09/24 05:07:11;;;;;;;59.75;20.73;;;;;;;19.16;57.99;101231.03;5043869;28;21199;-78
2022/09/24 05:09:36;;;;;;;57.80;18.75;;;;;;;19.15;57.81;101229.31;5065730;28;20052;-77
2022/09/24 05:12:03;;;;;;;57.90;20.20;;;;;;;19.14;57.92;101226.72;5091491;28;20055;-76
2022/09/24 05:14:29;;;;;;;43.60;16.20;;;;;;;19.15;57.91;101225.84;5077778;28;20457;-78
2022/09/24 05:16:54;;;;;;;38.78;13.30;;;;;;;19.15;57.87;101223.25;5092903;28;20048;-78
2022/09/24 05:19:20;;;;;;;33.65;12.73;;;;;;;19.16;57.72;101232.78;5091441;28;20075;-78
2022/09/24 05:24:11;;;;;;;26.02;10.05;;;;;;;19.15;57.83;101233.69;5110840;28;20500;-80
2022/09/24 05:29:10;;;;;;;26.77;9.30;;;;;;;19.15;58.01;101229.31;5078637;28;21179;-78
2022/09/24 05:31:36;;;;;;;20.27;8.13;;;;;;;19.15;57.87;101237.16;5093996;28;20131;-77
2022/09/24 05:34:02;;;;;;;21.92;8.45;;;;;;;19.15;57.89;101231.06;5058610;28;20063;-78
2022/09/24 05:36:27;;;;;;;19.45;7.85;;;;;;;19.15;57.86;101231.06;5077700;28;20080;-82
2022/09/24 05:38:53;;;;;;;17.95;7.22;;;;;;;19.16;57.77;101245.81;5075699;28;20047;-77
2022/09/24 05:41:19;;;;;;;15.38;7.18;;;;;;;19.15;57.60;101241.50;5076900;28;20067;-81
2022/09/24 05:43:44;;;;;;;16.52;6.97;;;;;;;19.15;57.70;101250.19;5096735;28;20051;-79
2022/09/24 05:46:10;;;;;;;17.77;7.20;;;;;;;19.14;57.86;101248.47;5076403;28;20051;-77
2022/09/24 05:48:35;;;;;;;15.25;6.68;;;;;;;19.15;58.12;101247.59;5060737;28;20120;-75
2022/09/24 05:51:01;;;;;;;15.93;6.43;;;;;;;19.13;58.36;101251.09;5091426;28;20492;-78
2022/09/24 05:53:26;;;;;;;16.73;6.80;;;;;;;19.09;58.26;101251.09;5093803;28;20371;-75
2022/09/24 05:55:52;;;;;;;12.02;5.65;;;;;;;19.09;58.00;101265.91;5110288;28;20089;-76
2022/09/24 05:58:17;;;;;;;18.65;6.10;;;;;;;19.09;57.90;101260.69;5076670;28;20371;-83
2022/09/24 06:00:44;;;;;;;27.70;8.85;;;;;;;19.09;57.93;101265.91;5093517;28;20524;-75
2022/09/24 06:03:12;;;;;;;23.95;8.52;;;;;;;19.13;58.05;101270.22;5075488;28;20055;-75
2022/09/24 06:05:38;;;;;;;32.05;8.98;;;;;;;19.13;58.12;101271.97;5093231;28;20394;-78
2022/09/24 06:08:04;;;;;;;20.45;8.10;;;;;;;19.11;58.08;101274.56;5091275;28;20048;-75
2022/09/24 06:10:30;;;;;;;24.25;8.55;;;;;;;19.11;58.06;101272.81;5076541;28;20092;-76
2022/09/24 06:12:55;;;;;;;22.50;8.02;;;;;;;19.11;58.00;101277.19;5073750;28;20142;-76
2022/09/24 06:15:21;;;;;;;18.58;7.40;;;;;;;19.11;57.75;101283.25;5093069;28;20130;-74
2022/09/24 06:17:46;;;;;;;20.55;7.10;;;;;;;19.11;57.91;101278.03;5089132;28;20139;-75
2022/09/24 06:20:12;;;;;;;17.88;7.43;;;;;;;19.11;57.90;101282.41;5091719;28;20298;-75
2022/09/24 06:22:38;;;;;;;19.75;7.28;;;;;;;19.11;57.76;101285.00;5076126;28;20051;-76
2022/09/24 06:25:04;;;;;;;22.20;7.65;;;;;;;19.13;57.73;101295.44;5090838;28;20055;-76
2022/09/24 06:27:29;;;;;;;17.42;6.68;;;;;;;19.13;57.84;101290.22;5068042;28;20047;-74
2022/09/24 06:29:55;;;;;;;16.48;6.20;;;;;;;19.11;57.62;101301.50;5057929;28;20389;-74
2022/09/24 06:32:23;;;;;;;14.95;6.20;;;;;;;19.14;57.71;101302.38;5093463;28;20485;-76
2022/09/24 06:34:48;;;;;;;15.48;6.32;;;;;;;19.15;57.60;101301.50;5072899;28;20054;-74
2022/09/24 06:37:13;;;;;;;14.57;6.25;;;;;;;19.15;57.76;101304.13;5091621;28;20127;-74
2022/09/24 06:39:39;;;;;;;17.80;6.43;;;;;;;19.15;57.88;101306.72;5092980;28;20079;-74
2022/09/24 06:42:05;;;;;;;12.98;5.80;;;;;;;19.15;57.46;101306.72;5090627;28;20444;-74
2022/09/24 06:44:33;;;;;;;15.70;5.78;;;;;;;19.14;57.58;101305.88;5084104;28;20454;-75
2022/09/24 06:47:00;;;;;;;14.40;5.97;;;;;;;19.15;57.47;101312.81;5108397;28;20046;-75
2022/09/24 06:49:25;;;;;;;13.98;5.18;;;;;;;19.15;57.47;101314.56;5110622;28;20044;-75
2022/09/24 06:51:52;;;;;;;11.77;5.78;;;;;;;19.16;57.36;101324.09;5091122;28;20040;-74
2022/09/24 06:54:18;;;;;;;12.85;5.72;;;;;;;19.15;57.36;101323.25;5091460;28;20138;-74
2022/09/24 06:56:43;;;;;;;14.35;5.78;;;;;;;19.15;57.28;101323.25;5110568;28;20127;-74
2022/09/24 06:59:09;;;;;;;13.60;6.18;;;;;;;19.16;57.33;101330.16;5090269;28;20061;-73
2022/09/24 07:01:34;;;;;;;14.75;5.65;;;;;;;19.17;57.25;101331.06;5075628;28;20077;-75
2022/09/24 07:04:00;;;;;;;11.77;5.30;;;;;;;19.17;57.32;101331.06;5089857;28;20075;-74
2022/09/24 07:06:25;;;;;;;10.80;5.30;;;;;;;19.16;57.07;101327.56;5058976;28;20047;-75
2022/09/24 07:08:50;;;;;;;11.82;5.13;;;;;;;19.17;57.06;101325.84;5073988;28;20455;-75
2022/09/24 07:11:16;;;;;;;9.95;4.70;;;;;;;19.17;57.01;101331.91;5092105;28;20040;-76
2022/09/24 07:13:41;;;;;;;14.82;5.20;;;;;;;19.18;57.00;101336.25;5075005;28;20047;-77
2022/09/24 07:16:06;;;;;;;11.45;4.90;;;;;;;19.20;57.04;101331.88;5056158;28;20155;-75
2022/09/24 07:18:32;;;;;;;11.88;5.15;;;;;;;19.22;56.95;101330.13;5091909;28;20100;-74
2022/09/24 07:20:57;;;;;;;10.13;4.75;;;;;;;19.23;57.28;101341.44;5088314;28;20059;-78
2022/09/24 07:23:23;;;;;;;10.52;5.10;;;;;;;19.25;56.78;101334.44;5068144;28;20436;-75
2022/09/24 07:25:53;;;;;;;10.00;4.65;;;;;;;19.26;56.64;101330.97;5101780;28;20104;-74
2022/09/24 07:28:19;;;;;;;12.25;5.07;;;;;;;19.27;56.66;101337.91;5109144;28;20501;-76
2022/09/24 07:30:44;;;;;;;9.05;4.45;;;;;;;19.29;56.60;101339.66;5074670;28;20127;-76
2022/09/24 07:33:10;;;;;;;10.82;4.50;;;;;;;19.32;56.56;101343.97;5089376;28;20089;-74
2022/09/24 07:35:39;;;;;;;11.73;4.70;;;;;;;19.35;56.54;101346.53;5091836;28;20120;-75
2022/09/24 07:38:06;;;;;;;8.82;4.53;;;;;;;19.38;56.68;101348.25;5055708;28;20040;-75
2022/09/24 07:40:32;;;;;;;10.05;4.45;;;;;;;19.37;56.44;101347.41;5063249;28;1319714;-74
2022/09/24 07:42:58;;;;;;;9.80;4.22;;;;;;;19.40;56.27;101351.72;5089115;28;20051;-75
2022/09/24 07:45:28;;;;;;;8.48;4.22;;;;;;;19.40;56.50;101356.94;5091504;28;20048;-74
2022/09/24 07:48:03;;;;;;;10.55;4.28;;;;;;;19.42;56.50;101363.88;5089238;28;20067;-77
2022/09/24 07:50:31;;;;;;;8.35;4.30;;;;;;;19.41;56.19;101362.16;5091484;28;20043;-76
2022/09/24 07:52:57;;;;;;;9.95;4.10;;;;;;;19.41;56.30;101366.53;5088971;28;20047;-76
2022/09/24 07:55:23;;;;;;;7.53;4.55;;;;;;;19.40;56.17;101363.03;5091703;28;20066;-76
2022/09/24 07:57:50;;;;;;;10.40;4.25;;;;;;;19.37;56.25;101368.28;5090647;28;20043;-75
2022/09/24 08:00:17;;;;;;;7.60;3.85;;;;;;;19.35;55.96;101366.56;5108639;28;20073;-74
2022/09/24 08:02:43;;;;;;;8.95;3.90;;;;;;;19.33;56.64;101369.19;5091489;28;20047;-77
2022/09/24 08:05:09;;;;;;;7.15;3.80;;;;;;;19.33;56.71;101367.44;5107199;28;20050;-76
2022/09/24 08:07:34;;;;;;;9.45;3.95;;;;;;;19.33;56.43;101363.97;5079481;28;20048;-74
2022/09/24 08:10:00;;;;;;;7.70;4.03;;;;;;;19.33;56.49;101369.19;5079505;28;20032;-75
2022/09/24 08:12:26;;;;;;;8.65;4.00;;;;;;;19.33;56.39;101370.03;5091122;28;20097;-76
2022/09/24 08:14:52;;;;;;;8.23;3.75;;;;;;;19.34;56.25;101370.94;5089749;28;20042;-74
2022/09/24 08:17:17;;;;;;;8.45;3.83;;;;;;;19.35;56.40;101375.25;5109063;28;20051;-74
2022/09/24 08:19:45;;;;;;;5.82;3.42;;;;;;;19.36;56.22;101373.50;5091474;28;20035;-74
2022/09/24 08:22:11;;;;;;;6.53;3.70;;;;;;;19.35;56.20;101380.47;5089279;28;20193;-77
2022/09/24 08:24:37;;;;;;;9.07;3.83;;;;;;;19.35;56.28;101377.84;5074381;28;20071;-76
2022/09/24 08:27:02;;;;;;;7.03;3.20;;;;;;;19.34;56.40;101389.19;5071875;28;20082;-75
2022/09/24 08:29:27;;;;;;;7.00;4.00;;;;;;;19.35;56.30;101380.47;5074479;28;20443;-75
2022/09/24 08:31:53;;;;;;;6.35;3.22;;;;;;;19.35;56.20;101390.91;5073135;28;20120;-75
2022/09/24 08:34:18;;;;;;;9.10;3.70;;;;;;;19.37;56.30;101377.84;5074329;28;20048;-76
2022/09/24 08:36:44;;;;;;;7.45;3.53;;;;;;;19.38;56.59;101380.47;5059380;28;20048;-76
2022/09/24 08:39:12;;;;;;;6.93;3.25;;;;;;;19.40;55.73;101393.47;5093359;28;20053;-75
2022/09/24 08:41:46;;;;;;;6.93;3.17;;;;;;;19.44;55.86;101395.19;5078387;28;20090;-75
2022/09/24 08:47:29;;;;;;;6.05;3.15;;;;;;;19.46;55.67;101396.03;5111659;28;20451;-76
2022/09/24 08:50:02;;;;;;;5.82;3.17;;;;;;;19.47;55.50;101401.25;5092575;28;20101;-74
2022/09/24 08:52:45;;;;;;;6.72;3.40;;;;;;;19.49;55.38;101393.44;5097317;28;20042;-76
2022/09/24 08:55:21;;;;;;;6.00;2.67;;;;;;;19.50;55.35;101396.00;5116553;28;20541;-75
2022/09/24 08:58:11;;;;;;;6.00;2.80;;;;;;;19.50;55.41;101398.59;5116520;28;20164;-76
2022/09/24 09:03:28;;;;;;;5.75;2.75;;;;;;;19.53;55.36;101397.72;5086946;28;20047;-77
2022/09/24 09:06:00;;;;;;;6.10;3.25;;;;;;;19.56;55.28;101415.13;5110812;28;20044;-74
2022/09/24 09:08:34;;;;;;;5.53;2.70;;;;;;;19.54;55.06;101404.69;5112855;28;20040;-76
2022/09/24 09:11:02;;;;;;;4.80;2.70;;;;;;;19.55;55.33;101410.75;5092163;28;20044;-75
2022/09/24 09:13:46;;;;;;;5.82;2.97;;;;;;;19.55;55.22;101410.75;5094090;28;20390;-75
2022/09/24 09:16:38;;;;;;;5.65;2.60;;;;;;;19.55;55.24;101416.84;5056788;28;20143;-77
2022/09/24 09:19:08;;;;;;;4.70;2.78;;;;;;;19.55;55.26;101421.19;5067428;28;20494;-75
2022/09/24 09:21:42;;;;;;;5.90;2.72;;;;;;;19.50;55.41;101419.50;5085674;28;20056;-75
2022/09/24 09:24:22;;;;;;;5.30;2.55;;;;;;;19.49;55.33;101429.97;5109644;28;20063;-74
2022/09/24 09:26:50;;;;;;;4.63;2.65;;;;;;;19.46;55.58;101419.53;5111360;28;20058;-76
2022/09/24 09:29:16;;;;;;;4.60;2.58;;;;;;;19.46;55.48;101429.97;5111217;28;20522;-77
2022/09/24 09:34:43;;;;;;;4.65;2.17;;;;;;;19.45;55.53;101436.09;5084963;28;20047;-75
2022/09/24 09:37:26;;;;;;;6.30;2.40;;;;;;;19.44;55.50;101434.34;5109421;28;20047;-77
2022/09/24 09:40:03;;;;;;;4.10;2.40;;;;;;;19.44;55.61;101440.41;5110104;28;20051;-76
2022/09/24 09:42:39;;;;;;;5.80;2.58;;;;;;;19.44;55.41;101440.41;5093694;28;20047;-75
2022/09/24 09:45:19;;;;;;;4.13;2.50;;;;;;;19.45;55.54;101447.38;5110000;28;20100;-76
2022/09/24 09:50:17;;;;;;;4.80;2.58;;;;;;;19.45;55.40;101449.13;5084370;28;20546;-75
2022/09/24 09:52:42;;;;;;;4.45;2.60;;;;;;;19.45;55.38;101446.53;5111654;28;20393;-75
2022/09/24 09:55:23;;;;;;;4.10;2.08;;;;;;;19.44;55.37;101450.84;5091459;28;20052;-76
2022/09/24 09:57:50;;;;;;;4.38;2.30;;;;;;;19.45;55.28;101444.78;5083697;28;20546;-76
2022/09/24 10:00:32;;;;;;;4.43;2.22;;;;;;;19.43;55.43;101443.91;5103473;28;20042;-76
2022/09/24 10:02:57;;;;;;;4.68;2.35;;;;;;;19.43;55.47;101453.50;5108991;28;20048;-77
2022/09/24 10:05:27;;;;;;;4.63;2.50;;;;;;;19.42;55.42;101444.78;5093438;28;20043;-76
2022/09/24 10:07:56;;;;;;;4.25;2.20;;;;;;;19.43;55.26;101448.28;5075723;28;20127;-76
2022/09/24 10:10:24;;;;;;;4.90;2.22;;;;;;;19.41;55.37;101447.44;5092752;28;20427;-77
2022/09/24 10:13:11;;;;;;;4.25;2.25;;;;;;;19.38;55.55;101450.94;5091835;28;20043;-75
2022/09/24 10:18:13;;;;;;;4.10;1.92;;;;;;;19.36;55.47;101450.06;5101034;28;20048;-75
2022/09/24 10:20:39;;;;;;;4.05;2.30;;;;;;;19.36;55.77;101455.28;5111632;28;20047;-75
2022/09/24 10:23:12;;;;;;;4.32;2.30;;;;;;;19.37;55.56;101458.75;5057670;28;20558;-75
2022/09/24 10:25:37;;;;;;;3.22;1.92;;;;;;;19.36;55.48;101443.97;5092868;28;20043;-77
2022/09/24 10:31:00;;;;;;;4.22;2.13;;;;;;;19.37;55.35;101454.41;5109787;28;20085;-77
2022/09/24 10:33:34;;;;;;;3.03;1.70;;;;;;;19.37;55.40;101446.56;5092463;28;20048;-75
2022/09/24 10:36:06;;;;;;;3.80;2.15;;;;;;;19.38;55.59;101460.47;5074909;28;20036;-73
2022/09/24 10:38:32;;;;;;;3.30;1.80;;;;;;;19.37;55.44;101453.53;5093017;28;20047;-75
2022/09/24 10:40:58;;;;;;;4.05;2.10;;;;;;;19.37;55.66;101456.16;5090284;28;20048;-75
2022/09/24 10:43:23;;;;;;;3.72;1.80;;;;;;;19.38;55.47;101458.75;5076013;28;20035;-77
2022/09/24 10:46:14;;;;;;;4.32;1.90;;;;;;;19.38;55.22;101457.88;5082861;28;20048;-76
2022/09/24 10:51:30;;;;;;;4.07;2.00;;;;;;;19.43;55.06;101470.03;5092216;28;20047;-76
2022/09/24 10:54:20;;;;;;;3.30;1.85;;;;;;;19.44;55.23;101470.88;5108512;28;20027;-77
2022/09/24 10:56:52;;;;;;;4.70;2.05;;;;;;;19.47;55.19;101470.88;5092468;28;20043;-75
2022/09/24 10:59:26;;;;;;;3.10;1.80;;;;;;;19.48;54.82;101473.44;5109175;28;20474;-76
2022/09/24 11:02:35;;;;;;;4.20;1.90;;;;;;;19.51;55.02;101470.84;5090158;28;20100;-75
2022/09/24 11:05:11;;;;;;;4.43;1.70;;;;;;;19.56;54.68;101470.81;5107896;28;20044;-76
2022/09/24 11:07:42;;;;;;;3.47;1.77;;;;;;;19.60;54.54;101475.13;5110713;28;20124;-74
2022/09/24 11:10:22;;;;;;;3.90;1.55;;;;;;;19.62;54.55;101481.19;5108329;28;20058;-76
2022/09/24 11:13:09;;;;;;;3.05;1.85;;;;;;;19.63;54.52;101477.69;5109772;28;20172;-74
2022/09/24 11:18:32;;;;;;;3.75;1.63;;;;;;;19.65;54.33;101472.47;5083436;28;20052;-76
2022/09/24 11:21:23;;;;;;;3.20;1.60;;;;;;;19.64;54.46;101470.72;5108685;28;20051;-76
2022/09/24 11:24:04;;;;;;;3.00;1.67;;;;;;;19.66;54.06;101476.81;5091516;28;20043;-76
2022/09/24 11:32:27;;;;;;;4.93;1.75;;;;;;;19.61;54.38;101476.84;5111095;28;20058;-75
2022/09/24 11:35:11;;;;;;;2.42;1.45;;;;;;;19.63;54.24;101477.69;5092652;28;20048;-77
2022/09/24 11:37:43;;;;;;;2.60;1.45;;;;;;;19.64;54.31;101479.44;5091783;28;20043;-75
2022/09/24 11:40:21;;;;;;;3.20;1.55;;;;;;;19.65;54.39;101483.78;5108257;28;20063;-76
2022/09/24 11:42:52;;;;;;;2.13;1.40;;;;;;;19.68;54.12;101488.09;5091692;28;20507;-77
2022/09/24 11:45:35;;;;;;;3.22;1.55;;;;;;;19.66;54.15;101480.31;5074584;28;20098;-75
2022/09/24 11:48:23;;;;;;;2.60;1.45;;;;;;;19.69;54.03;101487.25;5104984;28;20048;-75
2022/09/24 11:51:19;;;;;;;4.30;1.58;;;;;;;19.69;54.02;101482.91;5109079;28;20044;-75
2022/09/24 11:56:19;;;;;;;2.72;1.20;;;;;;;19.65;54.00;101486.38;5090772;28;20123;-75
2022/09/24 12:01:22;;;;;;;3.85;1.38;;;;;;;19.67;54.20;101479.41;5099005;28;20156;-76
2022/09/24 12:04:22;;;;;;;2.65;1.48;;;;;;;19.68;54.05;101486.34;5090815;28;20058;-75
2022/09/24 12:06:56;;;;;;;2.10;1.13;;;;;;;19.66;54.06;101485.53;5081194;28;20131;-74
2022/09/24 12:09:39;;;;;;;;;;;;;;;19.66;54.07;101482.91;5109161;28;20482;-75
2022/09/24 12:12:09;;;;;;;2.50;1.40;;;;;;;19.68;54.03;101482.88;5109903;28;19923;-74
2022/09/24 12:17:20;;;;;;;2.08;1.40;;;;;;;19.69;54.09;101488.13;5094958;28;20101;-75
2022/09/24 12:22:12;;;;;;;2.67;1.40;;;;;;;19.74;53.95;101482.88;5086373;28;20180;-75
2022/09/24 12:27:18;;;;;;;2.97;1.42;;;;;;;19.75;53.78;101484.63;5111719;28;20183;-75
2022/09/24 12:35:27;;;;;;;2.70;1.35;;;;;;;19.79;53.67;101481.06;5111617;28;20116;-76
2022/09/24 12:38:02;;;;;;;2.10;1.02;;;;;;;19.80;53.85;101481.97;5093353;28;20043;-76
2022/09/24 12:40:39;;;;;;;2.40;1.40;;;;;;;19.81;53.72;101489.75;5085289;28;20044;-77
2022/09/24 12:43:24;;;;;;;2.80;1.25;;;;;;;19.81;53.77;101487.16;5090902;28;20527;-76
2022/09/24 12:45:55;;;;;;;2.40;1.30;;;;;;;19.80;53.59;101489.78;5093553;28;20139;-75
2022/09/24 12:48:23;;;;;;;2.55;1.30;;;;;;;19.78;53.63;101487.19;5093675;28;20047;-76
2022/09/24 12:50:58;;;;;;;2.63;1.20;;;;;;;19.80;53.73;101492.41;5112028;28;20051;-75
2022/09/24 12:53:27;;;;;;;2.67;1.17;;;;;;;19.81;53.74;101492.38;5094134;28;20139;-75